Terminal Aerodrome Forecast
Issued by NWS Sterling, VA

Home | Current Version | Previous Version | Text Only | Print | Product List | Glossary On
Versions: 1 2 3 4 5 6 7 8 9 10 11 12 13 14 15 16 17 18 19
000
FTUS41 KLWX 282000 AAA
TAFIAD
TAF AMD
KIAD 282054Z 2821/2924 34010G16KT P6SM FEW050 SCT220
     FM290000 35005KT P6SM SKC
     FM290700 00000KT P6SM FEW250
     FM291700 12005KT P6SM FEW250=

USA.gov is the U.S. government's official web portal to all federal, state and local government web resources and services.